Sterling, Pennsylvania
Current Conditions -  °F | °C
As of 8:53 AM on Thursday 23 Oct 2014 (Local Time) from KMPO Reporting Station
Light Rain Light Rain  
Wind Chill: 35°   Ceiling: 700
Heat Index: 43°   Visibility: 3mi
Dew Point: 40°   Wind: 18mph
Humidity: 89%   Direction: 330°NNW
Pressure: 29.79"   Gusts: 31mph
Location:  41.34°N, 75.39°W
Report Text: KMPO 231253Z AUTO 33016G27KT 3SM -RA BR BKN007 OVC017 06/04 A2979 RMK AO2 PK WND 32027/1253 SLP095 T00610044 TSNO PNO $
Loading
Personal Weather Stations






























Interactive Weather Map
Tropical Storm Tracking
New forecast layout! Learn more

10-Day Weather Forecast

Advertisements
Track Severe Weather on mobile